createdAt,value
2019-04-10T00:02:03.099Z,71.40
2019-04-10T00:04:31.577Z,71.50
2019-04-10T00:07:08.535Z,71.30
2019-04-10T00:09:30.730Z,71.20
2019-04-10T00:11:59.234Z,71.50
2019-04-10T00:14:28.239Z,71.60
2019-04-10T00:16:56.746Z,71.80
2019-04-10T00:19:25.156Z,71.60
2019-04-10T00:21:53.644Z,71.60
2019-04-10T00:24:22.081Z,71.30
2019-04-10T00:26:52.202Z,71.40
2019-04-10T00:29:20.699Z,71.30
2019-04-10T00:31:49.107Z,71.50
2019-04-10T00:34:17.759Z,71.10
2019-04-10T00:36:46.282Z,70.60
2019-04-10T00:39:14.792Z,71.10
2019-04-10T00:41:44.254Z,71.70
2019-04-10T00:44:13.336Z,72.10
2019-04-10T00:46:44.949Z,72.30
2019-04-10T00:49:13.517Z,72.00
2019-04-10T00:51:41.943Z,72.40
2019-04-10T00:54:10.374Z,71.90
2019-04-10T00:56:39.528Z,71.90
2019-04-10T00:59:08.856Z,72.20
2019-04-10T01:01:38.696Z,72.30
2019-04-10T01:04:07.155Z,72.50
2019-04-10T01:06:35.765Z,72.50
2019-04-10T01:09:07.738Z,72.80
2019-04-10T01:11:36.161Z,72.80
2019-04-10T01:14:05.441Z,72.60
2019-04-10T01:16:33.950Z,72.20
2019-04-10T01:19:02.354Z,72.10
2019-04-10T01:21:30.776Z,72.20
2019-04-10T01:23:59.424Z,71.90
2019-04-10T01:26:28.361Z,72.30
2019-04-10T01:28:57.902Z,72.50
2019-04-10T01:31:26.810Z,72.40
2019-04-10T01:33:56.826Z,72.20
2019-04-10T01:36:25.279Z,71.30
2019-04-10T01:38:53.823Z,71.10
2019-04-10T01:41:22.383Z,71.50
2019-04-10T01:43:51.084Z,71.40
2019-04-10T01:46:20.189Z,70.70
2019-04-10T01:48:49.118Z,70.40
2019-04-10T01:51:17.681Z,70.50
2019-04-10T01:53:46.182Z,70.70
2019-04-10T01:56:22.903Z,70.90
2019-04-10T01:58:47.573Z,70.90
2019-04-10T02:01:18.583Z,70.60
2019-04-10T02:03:47.162Z,70.60
2019-04-10T02:06:15.567Z,70.70
2019-04-10T02:08:43.970Z,71.20
2019-04-10T02:11:13.297Z,71.50
2019-04-10T02:13:41.765Z,71.40
2019-04-10T02:16:10.321Z,71.50
2019-04-10T02:18:38.817Z,71.50
2019-04-10T02:21:07.517Z,71.30
2019-04-10T02:23:36.519Z,71.10
2019-04-10T02:26:05.354Z,71.10
2019-04-10T02:28:33.751Z,71.00
2019-04-10T02:31:02.837Z,71.00
2019-04-10T02:33:31.569Z,71.40
2019-04-10T02:36:01.373Z,71.90
2019-04-10T02:38:47.780Z,72.50
2019-04-10T02:41:08.191Z,72.30
2019-04-10T02:43:37.828Z,72.50
2019-04-10T02:46:08.201Z,72.80
2019-04-10T02:48:36.643Z,72.90
2019-04-10T02:51:05.680Z,73.00
2019-04-10T02:53:35.212Z,73.40
2019-04-10T02:56:05.273Z,73.60
2019-04-10T02:58:34.403Z,73.80
2019-04-10T03:01:03.285Z,73.70
2019-04-10T03:03:31.719Z,73.50
2019-04-10T03:06:00.338Z,73.50
2019-04-10T03:08:46.779Z,73.30
2019-04-10T03:13:26.991Z,73.30
2019-04-10T03:15:56.062Z,73.90
2019-04-10T03:18:25.126Z,74.20
2019-04-10T03:20:54.359Z,74.40
2019-04-10T03:23:23.233Z,74.60
2019-04-10T03:25:51.726Z,74.40
2019-04-10T03:28:20.218Z,74.50
2019-04-10T03:30:49.487Z,74.60
2019-04-10T03:33:22.634Z,74.90
2019-04-10T03:35:51.555Z,75.00
2019-04-10T03:38:20.024Z,75.10
2019-04-10T03:40:48.429Z,75.50
2019-04-10T03:43:17.440Z,75.10
2019-04-10T03:45:46.678Z,74.60
2019-04-10T03:48:15.943Z,74.60
2019-04-10T03:50:44.471Z,74.00
2019-04-10T03:53:13.916Z,74.10
2019-04-10T03:55:43.248Z,73.70
2019-04-10T03:58:11.784Z,73.80
2019-04-10T04:00:40.471Z,74.00
2019-04-10T04:03:08.933Z,74.10
2019-04-10T04:05:37.346Z,74.00
2019-04-10T04:08:05.767Z,74.00
2019-04-10T04:10:35.071Z,74.10
2019-04-10T04:13:05.985Z,74.20
2019-04-10T04:15:33.942Z,74.30
2019-04-10T04:18:02.581Z,74.50
2019-04-10T04:20:31.851Z,75.00
2019-04-10T04:23:01.264Z,75.40
2019-04-10T04:25:30.363Z,75.70
2019-04-10T04:27:58.862Z,76.10
2019-04-10T04:30:27.453Z,76.50
2019-04-10T04:32:56.100Z,76.20
2019-04-10T04:35:25.650Z,76.20
2019-04-10T04:37:54.930Z,76.30
2019-04-10T04:40:23.825Z,76.60
2019-04-10T04:42:52.323Z,76.40
2019-04-10T04:45:21.514Z,76.30
2019-04-10T04:47:50.350Z,76.50
2019-04-10T04:50:19.865Z,76.40
2019-04-10T04:52:49.321Z,76.30
2019-04-10T04:55:17.767Z,76.50
2019-04-10T04:57:47.133Z,76.40
2019-04-10T05:00:15.697Z,76.40
2019-04-10T05:02:44.790Z,76.50
2019-04-10T05:05:14.323Z,76.40
2019-04-10T05:07:55.504Z,76.50
2019-04-10T05:10:13.587Z,76.40
2019-04-10T05:12:43.185Z,76.60
2019-04-10T05:15:12.971Z,76.70
2019-04-10T05:17:41.607Z,76.90
2019-04-10T05:20:11.176Z,77.20
2019-04-10T05:22:39.740Z,77.00
2019-04-10T05:25:09.011Z,76.90
2019-04-10T05:27:37.499Z,77.00
2019-04-10T05:30:06.760Z,77.50
2019-04-10T05:32:35.439Z,77.10
2019-04-10T05:35:08.375Z,77.00
2019-04-10T05:37:35.983Z,76.90
2019-04-10T05:40:07.699Z,77.00
2019-04-10T05:42:37.291Z,77.20
2019-04-10T05:45:07.133Z,77.10
2019-04-10T05:47:36.539Z,77.10
2019-04-10T05:50:06.905Z,76.90
2019-04-10T05:52:35.397Z,77.10
2019-04-10T05:55:04.962Z,76.80
2019-04-10T05:57:33.372Z,76.70
2019-04-10T06:00:02.737Z,76.80
2019-04-10T06:02:32.121Z,76.20
2019-04-10T06:05:00.543Z,76.10
2019-04-10T06:07:29.411Z,76.10
2019-04-10T06:10:01.973Z,75.70
2019-04-10T06:12:28.556Z,75.60
2019-04-10T06:14:57.059Z,75.70
2019-04-10T06:17:26.739Z,74.80
2019-04-10T06:19:56.505Z,74.20
2019-04-10T06:22:26.310Z,72.30
2019-04-10T06:24:54.846Z,67.70
2019-04-10T06:27:43.048Z,62.30
2019-04-10T06:30:12.094Z,58.10
2019-04-10T06:32:40.634Z,56.70
2019-04-10T06:35:09.490Z,54.30
2019-04-10T06:37:38.071Z,52.50
2019-04-10T06:40:14.277Z,51.80
2019-04-10T06:42:46.412Z,50.30
2019-04-10T06:45:07.505Z,48.30
2019-04-10T06:47:36.206Z,47.80
2019-04-10T06:50:06.870Z,49.70
2019-04-10T06:52:35.299Z,49.90
2019-04-10T06:55:05.601Z,48.40
2019-04-10T06:57:48.112Z,47.20
2019-04-10T07:00:12.130Z,48.60
2019-04-10T07:02:38.784Z,51.00
2019-04-10T07:05:10.227Z,52.70
2019-04-10T07:07:47.736Z,56.40
2019-04-10T07:10:20.549Z,56.30
2019-04-10T07:12:39.562Z,53.70
2019-04-10T07:15:09.046Z,51.30
2019-04-10T07:17:40.620Z,52.10
2019-04-10T07:20:07.987Z,52.10
2019-04-10T07:22:36.588Z,53.30
2019-04-10T07:25:09.352Z,52.50
2019-04-10T07:27:38.607Z,51.60
2019-04-10T07:30:07.923Z,50.40
2019-04-10T07:32:36.346Z,50.70
2019-04-10T07:35:06.759Z,51.00
2019-04-10T07:37:36.230Z,50.30
2019-04-10T07:40:07.969Z,49.90
2019-04-10T07:42:39.613Z,48.00
2019-04-10T07:45:07.902Z,46.80
2019-04-10T07:47:37.871Z,46.30
2019-04-10T07:50:08.810Z,47.20
2019-04-10T07:52:37.442Z,46.90
2019-04-10T07:55:06.563Z,48.30
2019-04-10T07:57:36.276Z,48.20
2019-04-10T08:00:08.991Z,46.90
2019-04-10T08:02:38.483Z,48.10
2019-04-10T08:05:08.165Z,48.30
2019-04-10T08:07:38.803Z,49.20
2019-04-10T08:10:07.926Z,48.60
2019-04-10T08:12:42.439Z,48.40
2019-04-10T08:15:09.125Z,49.10
2019-04-10T08:17:38.864Z,50.10
2019-04-10T08:20:08.202Z,50.30
2019-04-10T08:22:37.218Z,51.30
2019-04-10T08:25:08.722Z,49.00
2019-04-10T08:27:38.375Z,49.30
2019-04-10T08:30:10.863Z,49.00
2019-04-10T08:32:50.901Z,49.00
2019-04-10T08:35:09.069Z,49.10
2019-04-10T08:37:41.093Z,48.80
2019-04-10T08:40:11.599Z,49.40
2019-04-10T08:42:40.414Z,47.60
2019-04-10T08:45:11.378Z,48.70
2019-04-10T08:47:39.883Z,47.10
2019-04-10T08:50:09.660Z,46.10
2019-04-10T08:52:39.064Z,48.00
2019-04-10T08:55:07.957Z,50.50
2019-04-10T08:57:36.442Z,51.40
2019-04-10T09:00:08.230Z,53.00
2019-04-10T09:02:36.646Z,49.30
2019-04-10T09:05:07.515Z,52.30
2019-04-10T09:07:36.010Z,51.20
2019-04-10T09:10:06.434Z,50.30
2019-04-10T09:12:34.827Z,52.00
2019-04-10T09:15:04.143Z,52.60
2019-04-10T09:17:33.412Z,53.30
2019-04-10T09:20:02.635Z,53.60
2019-04-10T09:22:49.067Z,53.30
2019-04-10T09:25:01.221Z,53.00
2019-04-10T09:27:29.643Z,53.60
2019-04-10T09:29:58.030Z,54.50
2019-04-10T09:32:26.579Z,55.20
2019-04-10T09:34:56.079Z,55.90
2019-04-10T09:37:24.595Z,55.90
2019-04-10T09:39:54.650Z,55.40
2019-04-10T09:42:23.612Z,55.70
2019-04-10T09:44:52.817Z,55.30
2019-04-10T09:47:21.291Z,54.70
2019-04-10T09:49:49.823Z,55.60
2019-04-10T09:52:18.723Z,55.00
2019-04-10T09:54:47.221Z,55.10
2019-04-10T09:57:15.652Z,53.70
2019-04-10T09:59:45.609Z,53.40
2019-04-10T10:02:16.080Z,52.50
2019-04-10T10:04:44.410Z,53.20
2019-04-10T10:07:12.812Z,54.00
2019-04-10T10:09:41.204Z,53.40
2019-04-10T10:12:10.207Z,53.80
2019-04-10T10:14:38.599Z,53.60
2019-04-10T10:17:07.024Z,55.60
2019-04-10T10:19:36.339Z,53.00
2019-04-10T10:22:06.021Z,52.70
2019-04-10T10:24:35.000Z,53.30
2019-04-10T10:27:03.497Z,53.50
2019-04-10T10:29:32.074Z,54.80
2019-04-10T10:32:00.494Z,54.60
2019-04-10T10:34:28.886Z,54.40
2019-04-10T10:36:57.923Z,54.80
2019-04-10T10:39:26.551Z,52.70
2019-04-10T10:41:55.044Z,52.50
2019-04-10T10:44:23.774Z,53.70
2019-04-10T10:46:52.222Z,52.20
2019-04-10T10:49:20.630Z,52.30
2019-04-10T10:51:49.034Z,52.70
2019-04-10T10:54:17.525Z,53.40
2019-04-10T10:56:48.786Z,52.40
2019-04-10T10:59:16.236Z,53.50
2019-04-10T11:01:44.661Z,52.10
2019-04-10T11:04:13.079Z,52.70
2019-04-10T11:06:52.601Z,51.30
2019-04-10T11:09:15.674Z,52.30
2019-04-10T11:11:45.404Z,52.00
2019-04-10T11:14:14.829Z,51.30
2019-04-10T11:16:43.441Z,50.70
2019-04-10T11:19:12.992Z,51.50
2019-04-10T11:21:42.869Z,52.00
2019-04-10T11:24:11.407Z,52.10
2019-04-10T11:26:40.065Z,51.60
2019-04-10T11:29:09.928Z,51.00
2019-04-10T11:31:39.578Z,50.30
2019-04-10T11:34:09.945Z,52.00
2019-04-10T11:36:39.911Z,50.90
2019-04-10T11:39:16.749Z,52.90
2019-04-10T11:41:41.141Z,50.90
2019-04-10T11:44:11.362Z,49.40
2019-04-10T11:46:41.852Z,49.20
2019-04-10T11:49:13.815Z,49.00
2019-04-10T11:51:40.273Z,48.50
2019-04-10T11:54:13.015Z,48.90
2019-04-10T11:56:38.895Z,49.20
2019-04-10T11:59:09.815Z,48.00
2019-04-10T12:01:39.202Z,48.40
2019-04-10T12:04:09.830Z,48.60
2019-04-10T12:06:39.746Z,48.70
2019-04-10T12:11:40.056Z,48.40
2019-04-10T12:14:08.480Z,48.30
2019-04-10T12:16:36.919Z,49.00
2019-04-10T12:19:05.386Z,50.00
2019-04-10T12:21:33.806Z,49.80
2019-04-10T12:24:02.194Z,47.30
2019-04-10T12:26:31.732Z,48.20
2019-04-10T12:29:00.392Z,49.80
2019-04-10T12:31:28.883Z,48.30
2019-04-10T12:33:57.330Z,46.40
2019-04-10T12:36:26.634Z,47.40
2019-04-10T12:38:56.762Z,46.70
2019-04-10T12:41:25.589Z,47.80
2019-04-10T12:43:54.149Z,47.00
2019-04-10T12:46:22.559Z,46.50
2019-04-10T12:48:50.993Z,46.40
2019-04-10T12:51:19.771Z,46.20
2019-04-10T12:53:48.250Z,48.30
2019-04-10T12:56:17.540Z,46.20
2019-04-10T12:58:46.707Z,46.30
2019-04-10T13:01:16.294Z,46.50
2019-04-10T13:03:44.921Z,48.20
2019-04-10T13:06:13.675Z,47.80
2019-04-10T13:08:57.009Z,47.60
2019-04-10T13:11:12.658Z,48.80
2019-04-10T13:13:42.076Z,47.50
2019-04-10T13:16:10.646Z,49.40
2019-04-10T13:18:39.175Z,48.50
2019-04-10T13:21:08.408Z,47.70
2019-04-10T13:23:37.012Z,46.30
2019-04-10T13:26:09.021Z,47.70
2019-04-10T13:28:36.660Z,46.90
2019-04-10T13:31:05.470Z,48.50
2019-04-10T13:33:34.011Z,49.50
2019-04-10T13:36:03.120Z,48.70
2019-04-10T13:38:34.008Z,49.00
2019-04-10T13:41:01.976Z,48.30
2019-04-10T13:43:30.475Z,47.00
2019-04-10T13:45:58.903Z,47.50
2019-04-10T13:48:27.303Z,48.20
2019-04-10T13:50:55.708Z,49.50
2019-04-10T13:53:26.038Z,49.50
2019-04-10T13:55:54.765Z,49.40
2019-04-10T13:58:24.230Z,51.30
2019-04-10T14:00:53.650Z,50.30
2019-04-10T14:03:22.645Z,49.70
2019-04-10T14:05:51.150Z,47.80
2019-04-10T14:08:19.572Z,46.50
2019-04-10T14:10:48.880Z,47.20
2019-04-10T14:13:17.882Z,48.80
2019-04-10T14:15:46.584Z,49.90
2019-04-10T14:18:14.983Z,49.90
2019-04-10T14:20:43.732Z,48.80
2019-04-10T14:23:15.443Z,47.70
2019-04-10T14:25:45.567Z,48.20
2019-04-10T14:28:14.475Z,49.60
2019-04-10T14:30:45.353Z,48.90
2019-04-10T14:33:14.945Z,50.70
2019-04-10T14:35:45.394Z,48.70
2019-04-10T14:38:14.868Z,48.60
2019-04-10T14:40:43.887Z,49.60
2019-04-10T14:43:12.496Z,49.10
2019-04-10T14:45:41.601Z,50.20
2019-04-10T14:48:10.261Z,48.70
2019-04-10T14:50:40.314Z,48.20
2019-04-10T14:53:09.646Z,49.00
2019-04-10T14:55:38.096Z,48.60
2019-04-10T14:58:19.620Z,48.70
2019-04-10T15:00:41.056Z,48.80
2019-04-10T15:03:09.678Z,50.40
2019-04-10T15:05:46.603Z,49.10
2019-04-10T15:08:09.224Z,50.00
2019-04-10T15:10:37.720Z,49.40
2019-04-10T15:13:11.296Z,48.00
2019-04-10T15:15:36.605Z,49.10
2019-04-10T15:18:05.187Z,48.30
2019-04-10T15:20:33.608Z,48.10
2019-04-10T15:23:02.901Z,48.90
2019-04-10T15:25:31.656Z,48.80
2019-04-10T15:28:00.179Z,49.00
2019-04-10T15:30:28.738Z,48.60
2019-04-10T15:32:58.172Z,49.50
2019-04-10T15:35:26.614Z,48.80
2019-04-10T15:37:55.707Z,49.00
2019-04-10T15:40:25.693Z,49.90
2019-04-10T15:42:54.608Z,50.00
2019-04-10T15:45:23.889Z,48.90
2019-04-10T15:47:54.604Z,50.60
2019-04-10T15:50:22.589Z,49.20
2019-04-10T15:52:51.555Z,49.80
2019-04-10T15:55:20.034Z,49.70
2019-04-10T15:57:53.834Z,50.40
2019-04-10T16:00:19.114Z,50.00
2019-04-10T16:02:47.559Z,48.80
2019-04-10T16:05:15.966Z,49.40
2019-04-10T16:07:44.834Z,49.60
2019-04-10T16:10:15.384Z,49.50
2019-04-10T16:12:43.890Z,48.40
2019-04-10T16:15:13.162Z,47.60
2019-04-10T16:17:44.028Z,46.90
2019-04-10T16:20:14.195Z,46.70
2019-04-10T16:22:44.766Z,46.00
2019-04-10T16:25:15.810Z,46.10
2019-04-10T16:27:45.250Z,46.10
2019-04-10T16:30:15.925Z,46.20
2019-04-10T16:32:46.638Z,47.10
2019-04-10T16:35:15.745Z,47.70
2019-04-10T16:37:44.338Z,48.30
2019-04-10T16:40:13.243Z,48.60
2019-04-10T16:42:41.824Z,48.20
2019-04-10T16:45:10.643Z,47.40
2019-04-10T16:47:39.057Z,48.10
2019-04-10T16:50:07.615Z,48.10
2019-04-10T16:52:36.842Z,49.00
2019-04-10T16:55:06.848Z,48.80
2019-04-10T16:57:35.283Z,48.60
2019-04-10T17:00:06.830Z,48.90
2019-04-10T17:02:36.041Z,49.40
2019-04-10T17:05:08.230Z,48.60
2019-04-10T17:07:36.777Z,47.60
2019-04-10T17:10:16.056Z,46.90
2019-04-10T17:12:38.130Z,47.00
2019-04-10T17:15:10.160Z,46.90
2019-04-10T17:17:38.889Z,46.70
2019-04-10T17:20:08.561Z,47.60
2019-04-10T17:22:43.569Z,48.90
2019-04-10T17:25:07.568Z,49.20
2019-04-10T17:27:35.979Z,50.00
2019-04-10T17:30:07.358Z,50.10
2019-04-10T17:32:38.463Z,50.30
2019-04-10T17:35:09.505Z,50.10
2019-04-10T17:37:38.442Z,50.00
2019-04-10T17:40:09.355Z,50.10
2019-04-10T17:42:39.120Z,50.60
2019-04-10T17:45:07.940Z,50.90
2019-04-10T17:47:36.762Z,50.70
2019-04-10T17:50:07.718Z,50.80
2019-04-10T17:52:37.919Z,50.20
2019-04-10T17:55:07.712Z,49.60
2019-04-10T17:57:40.180Z,49.60
2019-04-10T18:00:09.403Z,50.40
2019-04-10T18:02:38.926Z,50.80
2019-04-10T18:05:08.461Z,51.10
2019-04-10T18:10:18.716Z,51.50
2019-04-10T18:12:48.043Z,52.70
2019-04-10T18:15:16.740Z,53.00
2019-04-10T18:17:45.227Z,53.30
2019-04-10T18:20:13.784Z,54.40
2019-04-10T18:22:42.814Z,54.50
2019-04-10T18:25:11.866Z,54.80
2019-04-10T18:27:40.729Z,55.70
2019-04-10T18:30:09.968Z,55.70
2019-04-10T18:32:38.457Z,56.10
2019-04-10T18:35:07.418Z,56.50
2019-04-10T18:37:36.990Z,56.60
2019-04-10T18:40:07.482Z,57.00
2019-04-10T18:42:37.339Z,57.10
2019-04-10T18:45:07.843Z,57.90
2019-04-10T18:47:39.191Z,57.70
2019-04-10T18:50:09.905Z,57.80
2019-04-10T18:52:39.291Z,58.30
2019-04-10T18:55:28.636Z,58.90
2019-04-10T18:57:57.066Z,59.20
2019-04-10T19:00:27.188Z,59.50
2019-04-10T19:02:57.260Z,59.60
2019-04-10T19:05:27.814Z,59.90
2019-04-10T19:07:59.158Z,60.00
2019-04-10T19:10:28.679Z,60.30
2019-04-10T19:12:57.295Z,60.30
2019-04-10T19:15:25.832Z,60.70
2019-04-10T19:17:57.574Z,60.40
2019-04-10T19:20:26.812Z,60.40
2019-04-10T19:22:55.347Z,60.40
2019-04-10T19:25:24.895Z,60.40
2019-04-10T19:27:53.501Z,60.40
2019-04-10T19:30:23.566Z,60.30
2019-04-10T19:32:52.005Z,60.00
2019-04-10T19:35:21.148Z,59.90
2019-04-10T19:37:51.279Z,60.60
2019-04-10T19:40:20.015Z,60.40
2019-04-10T19:42:49.345Z,60.40
2019-04-10T19:45:17.967Z,60.90
2019-04-10T19:47:46.405Z,61.20
2019-04-10T19:50:15.173Z,61.60
2019-04-10T19:52:44.631Z,62.00
2019-04-10T19:55:13.556Z,62.20
2019-04-10T19:57:42.054Z,62.50
2019-04-10T20:00:12.529Z,62.70
2019-04-10T20:02:41.718Z,62.90
2019-04-10T20:05:10.428Z,63.20
2019-04-10T20:07:38.843Z,63.10
2019-04-10T20:10:08.672Z,63.30
2019-04-10T20:12:37.284Z,63.40
2019-04-10T20:15:07.049Z,63.50
2019-04-10T20:17:35.746Z,63.60
2019-04-10T20:20:06.963Z,64.00
2019-04-10T20:22:35.405Z,63.70
2019-04-10T20:25:04.039Z,63.70
2019-04-10T20:27:32.444Z,63.70
2019-04-10T20:30:01.563Z,63.70
2019-04-10T20:32:30.277Z,63.70
2019-04-10T20:34:58.709Z,63.50
2019-04-10T20:37:27.148Z,63.70
2019-04-10T20:39:55.845Z,63.70
2019-04-10T20:42:25.214Z,63.70
2019-04-10T20:44:54.084Z,63.80
2019-04-10T20:47:22.626Z,63.60
2019-04-10T20:49:51.237Z,63.50
2019-04-10T20:52:20.022Z,63.60
2019-04-10T20:54:48.909Z,63.50
2019-04-10T20:57:17.412Z,63.60
2019-04-10T20:59:45.846Z,63.60
2019-04-10T21:02:14.331Z,63.30
2019-04-10T21:04:53.683Z,63.10
2019-04-10T21:07:12.851Z,63.30
2019-04-10T21:09:41.708Z,63.10
2019-04-10T21:12:13.194Z,63.20
2019-04-10T21:14:40.470Z,63.20
2019-04-10T21:17:08.904Z,63.00
2019-04-10T21:19:37.577Z,62.70
2019-04-10T21:22:06.070Z,62.60
2019-04-10T21:24:35.675Z,62.70
2019-04-10T21:27:05.568Z,62.80
2019-04-10T21:29:36.382Z,62.80
2019-04-10T21:32:07.311Z,62.70
2019-04-10T21:34:37.430Z,63.00
2019-04-10T21:37:06.298Z,63.00
2019-04-10T21:39:35.968Z,62.80
2019-04-10T21:42:14.806Z,63.00
2019-04-10T21:44:35.139Z,63.10
2019-04-10T21:47:05.417Z,63.10
2019-04-10T21:49:34.049Z,63.30
2019-04-10T21:52:02.530Z,63.20
2019-04-10T21:54:31.388Z,63.10
2019-04-10T21:57:01.771Z,63.10
2019-04-10T21:59:30.999Z,63.00
2019-04-10T22:01:59.643Z,63.10
2019-04-10T22:04:28.230Z,63.10
2019-04-10T22:06:59.247Z,63.10
2019-04-10T22:09:30.457Z,63.30
2019-04-10T22:12:01.596Z,63.00
2019-04-10T22:14:30.199Z,63.30
2019-04-10T22:16:58.798Z,63.40
2019-04-10T22:19:28.334Z,63.50
2019-04-10T22:21:57.874Z,63.50
2019-04-10T22:24:26.550Z,63.50
2019-04-10T22:26:55.043Z,63.70
2019-04-10T22:29:23.474Z,63.70
2019-04-10T22:31:52.061Z,63.60
2019-04-10T22:34:21.358Z,63.60
2019-04-10T22:36:53.801Z,63.70
2019-04-10T22:39:23.090Z,63.90
2019-04-10T22:41:51.604Z,64.10
2019-04-10T22:44:20.042Z,64.20
2019-04-10T22:46:48.470Z,64.10
2019-04-10T22:49:17.857Z,64.40
2019-04-10T22:51:46.610Z,64.50
2019-04-10T22:54:15.026Z,64.50
2019-04-10T22:56:44.248Z,64.60
2019-04-10T22:59:13.577Z,64.90
2019-04-10T23:01:43.285Z,64.50
2019-04-10T23:04:12.244Z,64.80
2019-04-10T23:06:42.348Z,65.00
2019-04-10T23:09:11.854Z,65.20
2019-04-10T23:11:43.581Z,65.40
2019-04-10T23:14:10.530Z,65.50
2019-04-10T23:16:39.982Z,65.50
2019-04-10T23:19:08.517Z,65.60
2019-04-10T23:21:36.940Z,65.50
2019-04-10T23:24:05.552Z,65.60
2019-04-10T23:26:35.300Z,65.60
2019-04-10T23:29:04.172Z,65.80
2019-04-10T23:31:32.702Z,65.70
2019-04-10T23:34:01.122Z,65.90
2019-04-10T23:36:29.886Z,65.80
2019-04-10T23:38:58.338Z,65.90
2019-04-10T23:41:26.742Z,65.70
2019-04-10T23:43:55.809Z,65.80
2019-04-10T23:46:24.338Z,66.00
2019-04-10T23:51:32.071Z,66.30
2019-04-10T23:54:00.662Z,66.60
2019-04-10T23:56:29.435Z,66.70
2019-04-10T23:58:58.291Z,66.80
